sensor_id;sensor_type;location;lat;lon;timestamp;P1;durP1;ratioP1;P2;durP2;ratioP2
47259;SDS011;32999;52.412;4.890;2023-12-14T00:17:48;12.75;;;6.55;;
47259;SDS011;32999;52.412;4.890;2023-12-14T00:23:06;15.93;;;7.05;;
47259;SDS011;32999;52.412;4.890;2023-12-14T00:28:18;11.70;;;6.28;;
47259;SDS011;32999;52.412;4.890;2023-12-14T00:33:36;11.48;;;6.45;;
47259;SDS011;32999;52.412;4.890;2023-12-14T00:38:54;13.00;;;6.70;;
47259;SDS011;32999;52.412;4.890;2023-12-14T01:06:20;9.32;;;5.57;;
47259;SDS011;32999;52.412;4.890;2023-12-14T01:11:25;10.82;;;5.13;;
47259;SDS011;32999;52.412;4.890;2023-12-14T01:16:46;9.82;;;5.95;;
47259;SDS011;32999;52.412;4.890;2023-12-14T01:50:24;12.30;;;6.65;;
47259;SDS011;32999;52.412;4.890;2023-12-14T02:01:41;13.88;;;5.80;;
47259;SDS011;32999;52.412;4.890;2023-12-14T03:15:39;4.10;;;2.83;;
47259;SDS011;32999;52.412;4.890;2023-12-14T03:43:30;4.88;;;3.33;;
47259;SDS011;32999;52.412;4.890;2023-12-14T03:54:25;7.75;;;2.95;;
47259;SDS011;32999;52.412;4.890;2023-12-14T03:59:36;5.80;;;2.65;;
47259;SDS011;32999;52.412;4.890;2023-12-14T04:04:48;3.78;;;2.28;;
47259;SDS011;32999;52.412;4.890;2023-12-14T04:10:05;6.47;;;2.78;;
47259;SDS011;32999;52.412;4.890;2023-12-14T04:15:09;4.10;;;2.42;;
47259;SDS011;32999;52.412;4.890;2023-12-14T04:20:12;6.43;;;3.87;;
47259;SDS011;32999;52.412;4.890;2023-12-14T04:25:16;6.45;;;3.20;;
47259;SDS011;32999;52.412;4.890;2023-12-14T04:30:21;7.93;;;3.78;;
47259;SDS011;32999;52.412;4.890;2023-12-14T04:35:26;8.52;;;3.60;;
47259;SDS011;32999;52.412;4.890;2023-12-14T04:40:31;3.72;;;2.53;;
47259;SDS011;32999;52.412;4.890;2023-12-14T04:45:37;6.38;;;3.28;;
47259;SDS011;32999;52.412;4.890;2023-12-14T04:50:49;6.22;;;3.15;;
47259;SDS011;32999;52.412;4.890;2023-12-14T04:56:19;5.40;;;2.75;;
47259;SDS011;32999;52.412;4.890;2023-12-14T05:01:37;3.97;;;3.10;;
47259;SDS011;32999;52.412;4.890;2023-12-14T05:06:39;6.80;;;2.72;;
47259;SDS011;32999;52.412;4.890;2023-12-14T05:11:54;4.32;;;3.15;;
47259;SDS011;32999;52.412;4.890;2023-12-14T05:28:52;5.03;;;3.13;;
47259;SDS011;32999;52.412;4.890;2023-12-14T05:34:18;5.10;;;3.08;;
47259;SDS011;32999;52.412;4.890;2023-12-14T05:56:43;5.18;;;3.55;;
47259;SDS011;32999;52.412;4.890;2023-12-14T06:01:47;8.10;;;4.28;;
47259;SDS011;32999;52.412;4.890;2023-12-14T06:06:49;7.57;;;4.38;;
47259;SDS011;32999;52.412;4.890;2023-12-14T06:11:52;6.88;;;3.38;;
47259;SDS011;32999;52.412;4.890;2023-12-14T06:16:53;5.90;;;3.60;;
47259;SDS011;32999;52.412;4.890;2023-12-14T06:21:55;5.32;;;3.90;;
47259;SDS011;32999;52.412;4.890;2023-12-14T06:26:58;5.88;;;3.42;;
47259;SDS011;32999;52.412;4.890;2023-12-14T06:32:02;5.00;;;2.85;;
47259;SDS011;32999;52.412;4.890;2023-12-14T07:04:55;7.43;;;3.70;;
47259;SDS011;32999;52.412;4.890;2023-12-14T07:09:56;6.82;;;3.65;;
47259;SDS011;32999;52.412;4.890;2023-12-14T07:14:58;7.30;;;4.18;;
47259;SDS011;32999;52.412;4.890;2023-12-14T07:20:01;6.10;;;3.50;;
47259;SDS011;32999;52.412;4.890;2023-12-14T07:25:02;5.38;;;3.58;;
47259;SDS011;32999;52.412;4.890;2023-12-14T07:30:04;9.98;;;4.60;;
47259;SDS011;32999;52.412;4.890;2023-12-14T07:35:08;9.98;;;3.72;;
47259;SDS011;32999;52.412;4.890;2023-12-14T07:40:10;6.80;;;3.70;;
47259;SDS011;32999;52.412;4.890;2023-12-14T07:45:14;5.65;;;2.90;;
47259;SDS011;32999;52.412;4.890;2023-12-14T07:50:20;5.50;;;3.47;;
47259;SDS011;32999;52.412;4.890;2023-12-14T07:55:22;5.22;;;3.50;;
47259;SDS011;32999;52.412;4.890;2023-12-14T08:00:23;6.13;;;3.83;;
47259;SDS011;32999;52.412;4.890;2023-12-14T08:05:26;6.93;;;3.42;;
47259;SDS011;32999;52.412;4.890;2023-12-14T08:10:28;4.68;;;3.15;;
47259;SDS011;32999;52.412;4.890;2023-12-14T08:15:30;7.60;;;3.50;;
47259;SDS011;32999;52.412;4.890;2023-12-14T08:20:32;6.80;;;3.78;;
47259;SDS011;32999;52.412;4.890;2023-12-14T08:25:34;5.68;;;3.47;;
47259;SDS011;32999;52.412;4.890;2023-12-14T08:30:36;5.97;;;3.53;;
47259;SDS011;32999;52.412;4.890;2023-12-14T08:35:40;6.50;;;3.90;;
47259;SDS011;32999;52.412;4.890;2023-12-14T08:40:44;9.90;;;4.93;;
47259;SDS011;32999;52.412;4.890;2023-12-14T08:45:54;10.27;;;4.85;;
47259;SDS011;32999;52.412;4.890;2023-12-14T08:50:58;7.95;;;4.18;;
47259;SDS011;32999;52.412;4.890;2023-12-14T08:56:00;6.97;;;4.37;;
47259;SDS011;32999;52.412;4.890;2023-12-14T09:01:02;9.60;;;3.92;;
47259;SDS011;32999;52.412;4.890;2023-12-14T09:06:05;9.90;;;4.97;;
47259;SDS011;32999;52.412;4.890;2023-12-14T09:11:07;8.30;;;4.60;;
47259;SDS011;32999;52.412;4.890;2023-12-14T09:16:08;10.48;;;4.20;;
47259;SDS011;32999;52.412;4.890;2023-12-14T09:21:11;7.78;;;4.30;;
47259;SDS011;32999;52.412;4.890;2023-12-14T09:26:15;8.30;;;3.85;;
47259;SDS011;32999;52.412;4.890;2023-12-14T09:31:16;8.38;;;4.15;;
47259;SDS011;32999;52.412;4.890;2023-12-14T09:36:19;7.32;;;3.83;;
47259;SDS011;32999;52.412;4.890;2023-12-14T09:41:21;8.77;;;3.90;;
47259;SDS011;32999;52.412;4.890;2023-12-14T09:46:23;5.68;;;3.60;;
47259;SDS011;32999;52.412;4.890;2023-12-14T09:51:26;8.15;;;3.92;;
47259;SDS011;32999;52.412;4.890;2023-12-14T09:56:27;6.47;;;3.67;;
47259;SDS011;32999;52.412;4.890;2023-12-14T10:01:28;9.50;;;4.03;;
47259;SDS011;32999;52.412;4.890;2023-12-14T10:06:31;7.03;;;4.35;;
47259;SDS011;32999;52.412;4.890;2023-12-14T10:11:33;7.32;;;4.63;;
47259;SDS011;32999;52.412;4.890;2023-12-14T10:16:35;9.20;;;4.50;;
47259;SDS011;32999;52.412;4.890;2023-12-14T10:21:37;10.40;;;4.85;;
47259;SDS011;32999;52.412;4.890;2023-12-14T10:26:39;8.10;;;4.20;;
47259;SDS011;32999;52.412;4.890;2023-12-14T10:31:40;6.78;;;3.78;;
47259;SDS011;32999;52.412;4.890;2023-12-14T10:36:45;12.93;;;5.75;;
47259;SDS011;32999;52.412;4.890;2023-12-14T10:41:47;8.00;;;4.57;;
47259;SDS011;32999;52.412;4.890;2023-12-14T10:46:49;9.63;;;4.88;;
47259;SDS011;32999;52.412;4.890;2023-12-14T10:51:52;12.73;;;5.57;;
47259;SDS011;32999;52.412;4.890;2023-12-14T10:56:55;11.07;;;5.45;;
47259;SDS011;32999;52.412;4.890;2023-12-14T11:01:57;10.35;;;5.50;;
47259;SDS011;32999;52.412;4.890;2023-12-14T11:07:00;8.25;;;4.35;;
47259;SDS011;32999;52.412;4.890;2023-12-14T11:12:01;8.25;;;3.80;;
47259;SDS011;32999;52.412;4.890;2023-12-14T11:17:05;6.00;;;3.50;;
47259;SDS011;32999;52.412;4.890;2023-12-14T11:22:11;6.05;;;3.80;;
47259;SDS011;32999;52.412;4.890;2023-12-14T11:27:19;7.53;;;4.07;;
47259;SDS011;32999;52.412;4.890;2023-12-14T11:32:21;7.03;;;3.67;;
47259;SDS011;32999;52.412;4.890;2023-12-14T11:37:24;9.57;;;3.58;;
47259;SDS011;32999;52.412;4.890;2023-12-14T11:42:25;8.27;;;4.60;;
47259;SDS011;32999;52.412;4.890;2023-12-14T11:47:31;8.65;;;4.25;;
47259;SDS011;32999;52.412;4.890;2023-12-14T11:52:34;9.70;;;4.10;;
47259;SDS011;32999;52.412;4.890;2023-12-14T11:57:36;7.50;;;4.10;;
47259;SDS011;32999;52.412;4.890;2023-12-14T12:02:37;12.35;;;4.80;;
47259;SDS011;32999;52.412;4.890;2023-12-14T12:07:42;8.02;;;4.38;;
47259;SDS011;32999;52.412;4.890;2023-12-14T12:12:44;8.27;;;4.07;;
47259;SDS011;32999;52.412;4.890;2023-12-14T12:17:45;8.95;;;4.45;;
47259;SDS011;32999;52.412;4.890;2023-12-14T12:22:48;12.30;;;6.80;;
47259;SDS011;32999;52.412;4.890;2023-12-14T12:27:49;9.38;;;5.03;;
47259;SDS011;32999;52.412;4.890;2023-12-14T12:32:51;10.43;;;5.45;;
47259;SDS011;32999;52.412;4.890;2023-12-14T12:37:54;9.15;;;5.45;;
47259;SDS011;32999;52.412;4.890;2023-12-14T12:42:55;10.88;;;5.50;;
47259;SDS011;32999;52.412;4.890;2023-12-14T12:47:56;7.53;;;4.68;;
47259;SDS011;32999;52.412;4.890;2023-12-14T12:52:59;9.20;;;4.18;;
47259;SDS011;32999;52.412;4.890;2023-12-14T12:58:01;12.10;;;5.40;;
47259;SDS011;32999;52.412;4.890;2023-12-14T13:03:05;8.13;;;5.18;;
47259;SDS011;32999;52.412;4.890;2023-12-14T13:08:08;9.80;;;4.68;;
47259;SDS011;32999;52.412;4.890;2023-12-14T13:13:09;10.00;;;4.60;;
47259;SDS011;32999;52.412;4.890;2023-12-14T13:18:12;8.20;;;4.82;;
47259;SDS011;32999;52.412;4.890;2023-12-14T13:23:17;10.63;;;5.20;;
47259;SDS011;32999;52.412;4.890;2023-12-14T13:28:18;8.45;;;4.70;;
47259;SDS011;32999;52.412;4.890;2023-12-14T13:33:20;9.25;;;4.63;;
47259;SDS011;32999;52.412;4.890;2023-12-14T13:38:23;8.23;;;4.25;;
47259;SDS011;32999;52.412;4.890;2023-12-14T13:43:24;9.15;;;5.47;;
47259;SDS011;32999;52.412;4.890;2023-12-14T13:48:26;7.93;;;4.20;;
47259;SDS011;32999;52.412;4.890;2023-12-14T13:53:29;7.10;;;4.15;;
47259;SDS011;32999;52.412;4.890;2023-12-14T13:58:31;9.32;;;4.40;;
47259;SDS011;32999;52.412;4.890;2023-12-14T14:03:34;7.68;;;4.43;;
47259;SDS011;32999;52.412;4.890;2023-12-14T14:08:39;7.63;;;4.43;;
47259;SDS011;32999;52.412;4.890;2023-12-14T14:13:40;7.15;;;4.40;;
47259;SDS011;32999;52.412;4.890;2023-12-14T14:18:42;9.05;;;5.18;;
47259;SDS011;32999;52.412;4.890;2023-12-14T14:23:44;13.80;;;4.88;;
47259;SDS011;32999;52.412;4.890;2023-12-14T14:28:46;9.05;;;4.82;;
47259;SDS011;32999;52.412;4.890;2023-12-14T14:33:47;10.93;;;5.70;;
47259;SDS011;32999;52.412;4.890;2023-12-14T14:38:50;11.90;;;5.28;;
47259;SDS011;32999;52.412;4.890;2023-12-14T14:43:54;9.60;;;6.38;;
47259;SDS011;32999;52.412;4.890;2023-12-14T14:48:55;8.65;;;5.18;;
47259;SDS011;32999;52.412;4.890;2023-12-14T14:53:59;8.35;;;5.38;;
47259;SDS011;32999;52.412;4.890;2023-12-14T14:59:01;13.88;;;5.50;;
47259;SDS011;32999;52.412;4.890;2023-12-14T15:04:02;11.95;;;5.13;;
47259;SDS011;32999;52.412;4.890;2023-12-14T15:09:05;11.73;;;5.13;;
47259;SDS011;32999;52.412;4.890;2023-12-14T15:14:07;9.45;;;5.38;;
47259;SDS011;32999;52.412;4.890;2023-12-14T15:19:08;10.95;;;6.60;;
47259;SDS011;32999;52.412;4.890;2023-12-14T15:24:12;11.05;;;5.45;;
47259;SDS011;32999;52.412;4.890;2023-12-14T15:29:14;13.60;;;6.85;;
47259;SDS011;32999;52.412;4.890;2023-12-14T15:34:15;12.63;;;5.40;;
47259;SDS011;32999;52.412;4.890;2023-12-14T15:39:20;7.82;;;4.80;;
47259;SDS011;32999;52.412;4.890;2023-12-14T15:44:21;9.63;;;4.85;;
47259;SDS011;32999;52.412;4.890;2023-12-14T15:49:23;8.30;;;4.05;;
47259;SDS011;32999;52.412;4.890;2023-12-14T15:54:26;8.43;;;4.00;;
47259;SDS011;32999;52.412;4.890;2023-12-14T15:59:27;8.70;;;4.40;;
47259;SDS011;32999;52.412;4.890;2023-12-14T16:04:29;6.88;;;4.13;;
47259;SDS011;32999;52.412;4.890;2023-12-14T16:09:32;7.03;;;4.15;;
47259;SDS011;32999;52.412;4.890;2023-12-14T16:14:33;9.27;;;5.55;;
47259;SDS011;32999;52.412;4.890;2023-12-14T16:19:35;10.75;;;4.72;;
47259;SDS011;32999;52.412;4.890;2023-12-14T16:24:38;9.80;;;4.68;;
47259;SDS011;32999;52.412;4.890;2023-12-14T16:29:40;10.93;;;4.55;;
47259;SDS011;32999;52.412;4.890;2023-12-14T16:34:41;11.43;;;4.13;;
47259;SDS011;32999;52.412;4.890;2023-12-14T16:39:44;7.50;;;4.25;;
47259;SDS011;32999;52.412;4.890;2023-12-14T16:44:46;9.57;;;4.30;;
47259;SDS011;32999;52.412;4.890;2023-12-14T16:49:47;10.68;;;5.00;;
47259;SDS011;32999;52.412;4.890;2023-12-14T16:54:50;15.90;;;6.47;;
47259;SDS011;32999;52.412;4.890;2023-12-14T16:59:52;10.05;;;5.00;;
47259;SDS011;32999;52.412;4.890;2023-12-14T17:04:53;10.23;;;4.47;;
47259;SDS011;32999;52.412;4.890;2023-12-14T17:09:56;11.57;;;4.70;;
47259;SDS011;32999;52.412;4.890;2023-12-14T17:14:58;9.23;;;4.85;;
47259;SDS011;32999;52.412;4.890;2023-12-14T17:19:59;9.60;;;4.82;;
47259;SDS011;32999;52.412;4.890;2023-12-14T17:25:03;22.67;;;6.00;;
47259;SDS011;32999;52.412;4.890;2023-12-14T17:30:05;13.90;;;5.45;;
47259;SDS011;32999;52.412;4.890;2023-12-14T17:35:07;6.90;;;4.43;;
47259;SDS011;32999;52.412;4.890;2023-12-14T17:40:10;10.25;;;4.90;;
47259;SDS011;32999;52.412;4.890;2023-12-14T17:45:12;11.57;;;5.20;;
47259;SDS011;32999;52.412;4.890;2023-12-14T17:50:13;9.23;;;4.10;;
47259;SDS011;32999;52.412;4.890;2023-12-14T17:55:16;8.07;;;4.40;;
47259;SDS011;32999;52.412;4.890;2023-12-14T18:00:18;14.73;;;5.60;;
47259;SDS011;32999;52.412;4.890;2023-12-14T18:05:19;9.68;;;4.35;;
47259;SDS011;32999;52.412;4.890;2023-12-14T18:10:23;13.30;;;4.78;;
47259;SDS011;32999;52.412;4.890;2023-12-14T18:15:25;12.32;;;5.70;;
47259;SDS011;32999;52.412;4.890;2023-12-14T18:20:26;9.70;;;5.00;;
47259;SDS011;32999;52.412;4.890;2023-12-14T18:25:29;8.82;;;4.38;;
47259;SDS011;32999;52.412;4.890;2023-12-14T18:30:30;8.60;;;3.78;;
47259;SDS011;32999;52.412;4.890;2023-12-14T18:35:33;8.30;;;4.30;;
47259;SDS011;32999;52.412;4.890;2023-12-14T18:40:35;7.45;;;3.78;;
47259;SDS011;32999;52.412;4.890;2023-12-14T18:45:37;7.07;;;3.40;;
47259;SDS011;32999;52.412;4.890;2023-12-14T18:50:39;14.45;;;4.97;;
47259;SDS011;32999;52.412;4.890;2023-12-14T18:55:41;11.35;;;3.83;;
47259;SDS011;32999;52.412;4.890;2023-12-14T19:00:43;11.88;;;3.78;;
47259;SDS011;32999;52.412;4.890;2023-12-14T19:05:47;9.83;;;3.10;;
47259;SDS011;32999;52.412;4.890;2023-12-14T19:10:51;9.27;;;3.03;;
47259;SDS011;32999;52.412;4.890;2023-12-14T19:15:53;12.00;;;3.80;;
47259;SDS011;32999;52.412;4.890;2023-12-14T19:20:54;4.53;;;1.85;;
47259;SDS011;32999;52.412;4.890;2023-12-14T19:25:57;6.75;;;2.75;;
47259;SDS011;32999;52.412;4.890;2023-12-14T19:30:58;3.67;;;1.67;;
47259;SDS011;32999;52.412;4.890;2023-12-14T19:36:00;9.45;;;2.20;;
47259;SDS011;32999;52.412;4.890;2023-12-14T19:41:03;4.57;;;1.73;;
47259;SDS011;32999;52.412;4.890;2023-12-14T19:46:05;4.60;;;2.17;;
47259;SDS011;32999;52.412;4.890;2023-12-14T19:51:07;6.38;;;2.22;;
47259;SDS011;32999;52.412;4.890;2023-12-14T19:56:10;9.95;;;2.03;;
47259;SDS011;32999;52.412;4.890;2023-12-14T20:01:11;5.20;;;1.73;;
47259;SDS011;32999;52.412;4.890;2023-12-14T20:06:20;9.13;;;2.58;;
47259;SDS011;32999;52.412;4.890;2023-12-14T20:11:23;4.18;;;1.77;;
47259;SDS011;32999;52.412;4.890;2023-12-14T20:16:26;6.30;;;2.38;;
47259;SDS011;32999;52.412;4.890;2023-12-14T20:21:27;7.25;;;2.17;;
47259;SDS011;32999;52.412;4.890;2023-12-14T20:26:32;5.43;;;2.38;;
47259;SDS011;32999;52.412;4.890;2023-12-14T20:31:33;8.95;;;3.03;;
47259;SDS011;32999;52.412;4.890;2023-12-14T20:36:35;8.57;;;3.88;;
47259;SDS011;32999;52.412;4.890;2023-12-14T20:41:39;14.00;;;3.50;;
47259;SDS011;32999;52.412;4.890;2023-12-14T20:46:41;12.15;;;4.13;;
47259;SDS011;32999;52.412;4.890;2023-12-14T20:51:42;7.75;;;3.13;;
47259;SDS011;32999;52.412;4.890;2023-12-14T20:56:45;8.88;;;3.83;;
47259;SDS011;32999;52.412;4.890;2023-12-14T21:01:47;7.60;;;3.83;;
47259;SDS011;32999;52.412;4.890;2023-12-14T21:06:48;9.05;;;3.58;;
47259;SDS011;32999;52.412;4.890;2023-12-14T21:11:51;11.63;;;4.88;;
47259;SDS011;32999;52.412;4.890;2023-12-14T21:16:53;10.50;;;4.60;;
47259;SDS011;32999;52.412;4.890;2023-12-14T21:21:54;10.43;;;5.43;;
47259;SDS011;32999;52.412;4.890;2023-12-14T21:27:00;8.13;;;5.47;;
47259;SDS011;32999;52.412;4.890;2023-12-14T21:32:19;16.40;;;6.60;;
47259;SDS011;32999;52.412;4.890;2023-12-14T21:37:20;11.40;;;5.68;;
47259;SDS011;32999;52.412;4.890;2023-12-14T21:42:23;10.52;;;6.15;;
47259;SDS011;32999;52.412;4.890;2023-12-14T21:47:25;13.18;;;6.40;;
47259;SDS011;32999;52.412;4.890;2023-12-14T21:52:26;13.50;;;6.05;;
47259;SDS011;32999;52.412;4.890;2023-12-14T21:57:29;11.18;;;6.25;;
47259;SDS011;32999;52.412;4.890;2023-12-14T22:02:30;13.93;;;7.75;;
47259;SDS011;32999;52.412;4.890;2023-12-14T22:07:32;12.73;;;6.47;;
47259;SDS011;32999;52.412;4.890;2023-12-14T22:12:35;12.63;;;6.43;;
47259;SDS011;32999;52.412;4.890;2023-12-14T22:17:36;14.00;;;6.88;;
47259;SDS011;32999;52.412;4.890;2023-12-14T22:22:38;11.90;;;6.78;;
47259;SDS011;32999;52.412;4.890;2023-12-14T22:27:41;11.05;;;6.13;;
47259;SDS011;32999;52.412;4.890;2023-12-14T22:32:43;16.40;;;7.55;;
47259;SDS011;32999;52.412;4.890;2023-12-14T22:37:45;13.43;;;6.60;;
47259;SDS011;32999;52.412;4.890;2023-12-14T22:42:47;11.95;;;6.05;;
47259;SDS011;32999;52.412;4.890;2023-12-14T22:47:49;10.85;;;6.47;;
47259;SDS011;32999;52.412;4.890;2023-12-14T22:52:52;12.02;;;5.95;;
47259;SDS011;32999;52.412;4.890;2023-12-14T22:57:54;8.77;;;6.00;;
47259;SDS011;32999;52.412;4.890;2023-12-14T23:02:57;10.75;;;6.20;;
47259;SDS011;32999;52.412;4.890;2023-12-14T23:07:58;15.30;;;7.10;;
47259;SDS011;32999;52.412;4.890;2023-12-14T23:13:02;10.98;;;5.78;;
47259;SDS011;32999;52.412;4.890;2023-12-14T23:18:03;10.75;;;5.15;;
47259;SDS011;32999;52.412;4.890;2023-12-14T23:23:05;10.88;;;5.60;;
47259;SDS011;32999;52.412;4.890;2023-12-14T23:28:08;15.18;;;6.25;;
47259;SDS011;32999;52.412;4.890;2023-12-14T23:33:09;14.35;;;6.03;;
47259;SDS011;32999;52.412;4.890;2023-12-14T23:38:11;11.75;;;5.60;;
47259;SDS011;32999;52.412;4.890;2023-12-14T23:43:14;17.05;;;7.82;;
47259;SDS011;32999;52.412;4.890;2023-12-14T23:48:16;11.30;;;7.63;;
47259;SDS011;32999;52.412;4.890;2023-12-14T23:53:18;11.02;;;6.28;;
47259;SDS011;32999;52.412;4.890;2023-12-14T23:58:21;14.52;;;6.15;;
